CheckWX is a tool to help pilots better visualize weather data.  It is not intended as a substitute for an official pre-flight weather briefing.

12:20:33 UTC

KQRH METAR
Camp Lemonier
Camp Lemonier, Djibouti
Current

25 mins ago

KQRH 181156Z AUTO 05010G16KT 340V090 9999 CLR 29/22 A2983 RMK AO2 SLP088 WND DATA ESTMD T02910221 10330 20278
Observed
Feb-18 @ 11:56 UTC
Wind
  • 050° at 10 KTS
  • Gusting to 16 KTS
Visibility
10,000+ meters
Flight Rules
VFR
Cloud Levels
  • Clear skies
Temperature
29°C / 84°F
Dewpoint
22°C / 72°F
Humidity
66%
Altimeter
29.83" Hg
Pressure
1008.8 hPa
Previous

1 hour ago

KQRH 181056Z AUTO 05012G16KT 010V080 9999 FEW240 30/22 A2986 RMK AO2 SLP099 WND DATA ESTMD T02950224
Observed
Feb-18 @ 10:56 UTC
Wind
  • 050° at 12 KTS
  • Gusting to 16 KTS
Visibility
10,000+ meters
Flight Rules
VFR
Cloud Levels
  • Few at 24,000' AGL
Temperature
30°C / 86°F
Dewpoint
22°C / 72°F
Humidity
62%
Altimeter
29.86" Hg
Pressure
1009.9 hPa
Previous

2 hours ago

KQRH 180956Z AUTO VRB05KT 9999 FEW055 32/20 A2990 RMK AO2 SLP112 WND DATA ESTMD T03150198
Observed
Feb-18 @ 09:56 UTC
Wind
  • Variable at 5 KTS
Visibility
10,000+ meters
Flight Rules
VFR
Cloud Levels
  • Few at 5,500' AGL
Temperature
32°C / 90°F
Dewpoint
20°C / 68°F
Humidity
49%
Altimeter
29.9" Hg
Pressure
1011.2 hPa